sensor_id;sensor_type;location;lat;lon;timestamp;P1;durP1;ratioP1;P2;durP2;ratioP2
42666;SDS011;28280;49.646;14.130;2022-12-18T00:03:42;19.98;;;8.82;;
42666;SDS011;28280;49.646;14.130;2022-12-18T00:09:18;23.13;;;9.88;;
42666;SDS011;28280;49.646;14.130;2022-12-18T00:14:49;21.40;;;9.75;;
42666;SDS011;28280;49.646;14.130;2022-12-18T00:20:20;23.75;;;10.48;;
42666;SDS011;28280;49.646;14.130;2022-12-18T00:25:59;22.38;;;9.40;;
42666;SDS011;28280;49.646;14.130;2022-12-18T00:31:33;24.77;;;9.13;;
42666;SDS011;28280;49.646;14.130;2022-12-18T00:37:05;25.58;;;9.63;;
42666;SDS011;28280;49.646;14.130;2022-12-18T00:42:36;21.60;;;9.18;;
42666;SDS011;28280;49.646;14.130;2022-12-18T00:48:26;21.52;;;8.98;;
42666;SDS011;28280;49.646;14.130;2022-12-18T00:53:57;23.55;;;10.32;;
42666;SDS011;28280;49.646;14.130;2022-12-18T00:59:28;19.25;;;8.55;;
42666;SDS011;28280;49.646;14.130;2022-12-18T01:05:01;21.38;;;8.98;;
42666;SDS011;28280;49.646;14.130;2022-12-18T01:10:32;22.48;;;9.07;;
42666;SDS011;28280;49.646;14.130;2022-12-18T01:16:04;18.90;;;8.85;;
42666;SDS011;28280;49.646;14.130;2022-12-18T01:21:38;18.95;;;8.55;;
42666;SDS011;28280;49.646;14.130;2022-12-18T01:27:09;20.15;;;9.25;;
42666;SDS011;28280;49.646;14.130;2022-12-18T01:32:42;22.83;;;9.47;;
42666;SDS011;28280;49.646;14.130;2022-12-18T01:38:13;19.17;;;8.52;;
42666;SDS011;28280;49.646;14.130;2022-12-18T01:49:15;15.55;;;7.93;;
42666;SDS011;28280;49.646;14.130;2022-12-18T01:54:47;15.82;;;8.45;;
42666;SDS011;28280;49.646;14.130;2022-12-18T02:00:20;19.65;;;8.57;;
42666;SDS011;28280;49.646;14.130;2022-12-18T02:12:11;18.88;;;8.50;;
42666;SDS011;28280;49.646;14.130;2022-12-18T02:17:48;17.52;;;8.85;;
42666;SDS011;28280;49.646;14.130;2022-12-18T02:29:08;20.70;;;8.40;;
42666;SDS011;28280;49.646;14.130;2022-12-18T02:34:43;19.30;;;8.70;;
42666;SDS011;28280;49.646;14.130;2022-12-18T02:40:18;19.20;;;9.13;;
42666;SDS011;28280;49.646;14.130;2022-12-18T02:45:52;18.27;;;8.63;;
42666;SDS011;28280;49.646;14.130;2022-12-18T02:51:29;18.73;;;8.73;;
42666;SDS011;28280;49.646;14.130;2022-12-18T02:57:19;19.55;;;8.98;;
42666;SDS011;28280;49.646;14.130;2022-12-18T03:03:07;19.60;;;8.52;;
42666;SDS011;28280;49.646;14.130;2022-12-18T03:08:44;15.77;;;8.02;;
42666;SDS011;28280;49.646;14.130;2022-12-18T03:14:19;20.50;;;9.32;;
42666;SDS011;28280;49.646;14.130;2022-12-18T03:25:25;17.20;;;8.57;;
42666;SDS011;28280;49.646;14.130;2022-12-18T03:30:58;17.85;;;8.63;;
42666;SDS011;28280;49.646;14.130;2022-12-18T03:36:32;17.33;;;8.05;;
42666;SDS011;28280;49.646;14.130;2022-12-18T03:42:10;20.02;;;8.80;;
42666;SDS011;28280;49.646;14.130;2022-12-18T03:47:54;22.80;;;9.77;;
42666;SDS011;28280;49.646;14.130;2022-12-18T03:59:23;19.17;;;9.30;;
42666;SDS011;28280;49.646;14.130;2022-12-18T04:10:30;18.08;;;8.93;;
42666;SDS011;28280;49.646;14.130;2022-12-18T04:16:04;18.80;;;9.23;;
42666;SDS011;28280;49.646;14.130;2022-12-18T04:21:37;17.43;;;8.87;;
42666;SDS011;28280;49.646;14.130;2022-12-18T04:27:09;19.08;;;8.52;;
42666;SDS011;28280;49.646;14.130;2022-12-18T04:32:47;17.42;;;9.00;;
42666;SDS011;28280;49.646;14.130;2022-12-18T04:38:23;19.55;;;9.15;;
42666;SDS011;28280;49.646;14.130;2022-12-18T04:44:03;20.23;;;9.02;;
42666;SDS011;28280;49.646;14.130;2022-12-18T04:49:35;16.83;;;8.10;;
42666;SDS011;28280;49.646;14.130;2022-12-18T04:55:06;19.33;;;8.93;;
42666;SDS011;28280;49.646;14.130;2022-12-18T05:00:37;15.68;;;7.85;;
42666;SDS011;28280;49.646;14.130;2022-12-18T05:06:09;19.35;;;9.35;;
42666;SDS011;28280;49.646;14.130;2022-12-18T05:11:41;19.83;;;7.90;;
42666;SDS011;28280;49.646;14.130;2022-12-18T05:17:12;19.20;;;8.45;;
42666;SDS011;28280;49.646;14.130;2022-12-18T05:22:43;17.67;;;7.30;;
42666;SDS011;28280;49.646;14.130;2022-12-18T05:28:14;17.60;;;7.35;;
42666;SDS011;28280;49.646;14.130;2022-12-18T05:33:46;16.38;;;7.90;;
42666;SDS011;28280;49.646;14.130;2022-12-18T05:39:17;17.65;;;7.97;;
42666;SDS011;28280;49.646;14.130;2022-12-18T05:44:48;15.93;;;7.47;;
42666;SDS011;28280;49.646;14.130;2022-12-18T05:50:19;16.15;;;7.68;;
42666;SDS011;28280;49.646;14.130;2022-12-18T05:55:50;15.60;;;7.55;;
42666;SDS011;28280;49.646;14.130;2022-12-18T06:01:25;14.65;;;7.53;;
42666;SDS011;28280;49.646;14.130;2022-12-18T06:06:57;16.52;;;7.63;;
42666;SDS011;28280;49.646;14.130;2022-12-18T06:12:28;16.83;;;7.82;;
42666;SDS011;28280;49.646;14.130;2022-12-18T06:18:00;14.27;;;6.78;;
42666;SDS011;28280;49.646;14.130;2022-12-18T06:23:31;13.52;;;6.72;;
42666;SDS011;28280;49.646;14.130;2022-12-18T06:29:02;15.20;;;6.70;;
42666;SDS011;28280;49.646;14.130;2022-12-18T06:34:34;13.80;;;7.07;;
42666;SDS011;28280;49.646;14.130;2022-12-18T06:40:07;13.98;;;6.45;;
42666;SDS011;28280;49.646;14.130;2022-12-18T06:45:39;13.23;;;6.43;;
42666;SDS011;28280;49.646;14.130;2022-12-18T06:51:10;14.25;;;6.70;;
42666;SDS011;28280;49.646;14.130;2022-12-18T06:56:41;12.25;;;6.25;;
42666;SDS011;28280;49.646;14.130;2022-12-18T07:02:13;12.43;;;6.22;;
42666;SDS011;28280;49.646;14.130;2022-12-18T07:07:45;11.73;;;6.13;;
42666;SDS011;28280;49.646;14.130;2022-12-18T07:13:16;12.57;;;6.88;;
42666;SDS011;28280;49.646;14.130;2022-12-18T07:18:48;15.57;;;6.75;;
42666;SDS011;28280;49.646;14.130;2022-12-18T07:24:19;14.07;;;7.53;;
42666;SDS011;28280;49.646;14.130;2022-12-18T07:29:50;14.68;;;7.75;;
42666;SDS011;28280;49.646;14.130;2022-12-18T07:35:21;16.73;;;7.97;;
42666;SDS011;28280;49.646;14.130;2022-12-18T07:40:59;16.23;;;8.40;;
42666;SDS011;28280;49.646;14.130;2022-12-18T07:46:40;15.60;;;7.80;;
42666;SDS011;28280;49.646;14.130;2022-12-18T07:52:12;14.80;;;8.63;;
42666;SDS011;28280;49.646;14.130;2022-12-18T07:57:43;14.32;;;7.40;;
42666;SDS011;28280;49.646;14.130;2022-12-18T08:03:29;16.85;;;8.43;;
42666;SDS011;28280;49.646;14.130;2022-12-18T08:09:00;16.80;;;8.35;;
42666;SDS011;28280;49.646;14.130;2022-12-18T08:14:31;16.27;;;7.70;;
42666;SDS011;28280;49.646;14.130;2022-12-18T08:20:03;14.93;;;8.15;;
42666;SDS011;28280;49.646;14.130;2022-12-18T08:25:34;15.10;;;7.53;;
42666;SDS011;28280;49.646;14.130;2022-12-18T08:31:06;15.02;;;8.25;;
42666;SDS011;28280;49.646;14.130;2022-12-18T08:36:39;14.50;;;7.70;;
42666;SDS011;28280;49.646;14.130;2022-12-18T08:42:10;18.05;;;8.20;;
42666;SDS011;28280;49.646;14.130;2022-12-18T08:48:00;16.00;;;8.15;;
42666;SDS011;28280;49.646;14.130;2022-12-18T08:53:31;17.60;;;8.90;;
42666;SDS011;28280;49.646;14.130;2022-12-18T08:59:05;22.05;;;9.40;;
42666;SDS011;28280;49.646;14.130;2022-12-18T09:04:37;20.15;;;9.32;;
42666;SDS011;28280;49.646;14.130;2022-12-18T09:10:10;21.67;;;10.02;;
42666;SDS011;28280;49.646;14.130;2022-12-18T09:15:42;21.98;;;10.13;;
42666;SDS011;28280;49.646;14.130;2022-12-18T09:21:15;22.27;;;10.35;;
42666;SDS011;28280;49.646;14.130;2022-12-18T09:26:48;21.70;;;10.02;;
42666;SDS011;28280;49.646;14.130;2022-12-18T09:32:24;25.15;;;10.10;;
42666;SDS011;28280;49.646;14.130;2022-12-18T09:37:55;22.65;;;10.85;;
42666;SDS011;28280;49.646;14.130;2022-12-18T09:43:33;25.10;;;10.40;;
42666;SDS011;28280;49.646;14.130;2022-12-18T09:49:12;21.98;;;10.68;;
42666;SDS011;28280;49.646;14.130;2022-12-18T09:54:48;23.20;;;10.27;;
42666;SDS011;28280;49.646;14.130;2022-12-18T10:00:23;26.20;;;11.02;;
42666;SDS011;28280;49.646;14.130;2022-12-18T10:11:45;21.65;;;11.48;;
42666;SDS011;28280;49.646;14.130;2022-12-18T10:17:32;24.17;;;10.98;;
42666;SDS011;28280;49.646;14.130;2022-12-18T10:23:16;20.80;;;9.95;;
42666;SDS011;28280;49.646;14.130;2022-12-18T10:29:08;24.88;;;11.57;;
42666;SDS011;28280;49.646;14.130;2022-12-18T10:34:44;24.33;;;11.02;;
42666;SDS011;28280;49.646;14.130;2022-12-18T10:40:22;22.63;;;11.35;;
42666;SDS011;28280;49.646;14.130;2022-12-18T10:45:58;28.38;;;11.32;;
42666;SDS011;28280;49.646;14.130;2022-12-18T10:51:32;24.20;;;11.32;;
42666;SDS011;28280;49.646;14.130;2022-12-18T10:57:14;28.38;;;12.73;;
42666;SDS011;28280;49.646;14.130;2022-12-18T11:03:28;25.35;;;10.98;;
42666;SDS011;28280;49.646;14.130;2022-12-18T11:09:38;25.08;;;11.48;;
42666;SDS011;28280;49.646;14.130;2022-12-18T11:20:51;26.15;;;11.48;;
42666;SDS011;28280;49.646;14.130;2022-12-18T11:26:34;27.23;;;12.80;;
42666;SDS011;28280;49.646;14.130;2022-12-18T11:32:19;26.50;;;11.35;;
42666;SDS011;28280;49.646;14.130;2022-12-18T11:37:57;24.88;;;11.55;;
42666;SDS011;28280;49.646;14.130;2022-12-18T11:43:38;24.63;;;11.25;;
42666;SDS011;28280;49.646;14.130;2022-12-18T11:49:12;25.10;;;11.15;;
42666;SDS011;28280;49.646;14.130;2022-12-18T11:54:52;38.92;;;12.38;;
42666;SDS011;28280;49.646;14.130;2022-12-18T12:00:27;25.63;;;11.20;;
42666;SDS011;28280;49.646;14.130;2022-12-18T12:11:50;28.35;;;12.25;;
42666;SDS011;28280;49.646;14.130;2022-12-18T12:23:19;32.17;;;12.13;;
42666;SDS011;28280;49.646;14.130;2022-12-18T12:29:46;30.65;;;12.68;;
42666;SDS011;28280;49.646;14.130;2022-12-18T12:35:22;25.10;;;11.02;;
42666;SDS011;28280;49.646;14.130;2022-12-18T12:40:59;25.38;;;11.70;;
42666;SDS011;28280;49.646;14.130;2022-12-18T12:46:35;26.42;;;12.25;;
42666;SDS011;28280;49.646;14.130;2022-12-18T12:52:12;28.67;;;11.75;;
42666;SDS011;28280;49.646;14.130;2022-12-18T12:58:02;24.88;;;10.93;;
42666;SDS011;28280;49.646;14.130;2022-12-18T13:10:36;24.08;;;11.50;;
42666;SDS011;28280;49.646;14.130;2022-12-18T13:15:48;24.83;;;10.75;;
42666;SDS011;28280;49.646;14.130;2022-12-18T13:21:34;27.05;;;12.70;;
42666;SDS011;28280;49.646;14.130;2022-12-18T13:27:39;27.45;;;13.25;;
42666;SDS011;28280;49.646;14.130;2022-12-18T13:39:10;27.50;;;12.13;;
42666;SDS011;28280;49.646;14.130;2022-12-18T13:45:38;25.98;;;12.68;;
42666;SDS011;28280;49.646;14.130;2022-12-18T13:51:12;28.27;;;12.32;;
42666;SDS011;28280;49.646;14.130;2022-12-18T13:56:49;24.73;;;11.85;;
42666;SDS011;28280;49.646;14.130;2022-12-18T14:02:21;25.75;;;12.07;;
42666;SDS011;28280;49.646;14.130;2022-12-18T14:07:54;26.67;;;11.88;;
42666;SDS011;28280;49.646;14.130;2022-12-18T14:19:01;28.20;;;12.55;;
42666;SDS011;28280;49.646;14.130;2022-12-18T14:24:45;27.27;;;12.27;;
42666;SDS011;28280;49.646;14.130;2022-12-18T14:41:27;25.58;;;12.02;;
42666;SDS011;28280;49.646;14.130;2022-12-18T14:46:59;25.05;;;12.70;;
42666;SDS011;28280;49.646;14.130;2022-12-18T14:52:30;29.42;;;13.05;;
42666;SDS011;28280;49.646;14.130;2022-12-18T14:58:02;29.98;;;12.00;;
42666;SDS011;28280;49.646;14.130;2022-12-18T15:03:34;25.70;;;11.93;;
42666;SDS011;28280;49.646;14.130;2022-12-18T15:09:20;27.27;;;13.25;;
42666;SDS011;28280;49.646;14.130;2022-12-18T15:14:52;27.80;;;12.80;;
42666;SDS011;28280;49.646;14.130;2022-12-18T15:20:24;33.35;;;13.25;;
42666;SDS011;28280;49.646;14.130;2022-12-18T15:25:56;28.60;;;12.90;;
42666;SDS011;28280;49.646;14.130;2022-12-18T15:31:32;31.10;;;14.23;;
42666;SDS011;28280;49.646;14.130;2022-12-18T15:37:07;28.27;;;12.80;;
42666;SDS011;28280;49.646;14.130;2022-12-18T15:42:39;28.35;;;13.55;;
42666;SDS011;28280;49.646;14.130;2022-12-18T15:48:29;32.67;;;12.98;;
42666;SDS011;28280;49.646;14.130;2022-12-18T15:54:02;29.63;;;13.05;;
42666;SDS011;28280;49.646;14.130;2022-12-18T15:59:35;28.77;;;13.65;;
42666;SDS011;28280;49.646;14.130;2022-12-18T16:05:12;30.70;;;13.90;;
42666;SDS011;28280;49.646;14.130;2022-12-18T16:10:45;30.15;;;13.13;;
42666;SDS011;28280;49.646;14.130;2022-12-18T16:16:16;32.67;;;13.43;;
42666;SDS011;28280;49.646;14.130;2022-12-18T16:21:48;33.70;;;14.60;;
42666;SDS011;28280;49.646;14.130;2022-12-18T16:27:20;25.63;;;13.13;;
42666;SDS011;28280;49.646;14.130;2022-12-18T16:32:52;33.63;;;12.98;;
42666;SDS011;28280;49.646;14.130;2022-12-18T16:38:27;27.38;;;13.48;;
42666;SDS011;28280;49.646;14.130;2022-12-18T16:44:01;31.00;;;14.38;;
42666;SDS011;28280;49.646;14.130;2022-12-18T16:49:32;32.30;;;13.60;;
42666;SDS011;28280;49.646;14.130;2022-12-18T16:55:04;28.23;;;13.35;;
42666;SDS011;28280;49.646;14.130;2022-12-18T17:00:38;29.50;;;13.02;;
42666;SDS011;28280;49.646;14.130;2022-12-18T17:06:10;30.98;;;13.57;;
42666;SDS011;28280;49.646;14.130;2022-12-18T17:11:42;32.75;;;14.05;;
42666;SDS011;28280;49.646;14.130;2022-12-18T17:17:14;28.50;;;12.77;;
42666;SDS011;28280;49.646;14.130;2022-12-18T17:22:53;33.88;;;13.05;;
42666;SDS011;28280;49.646;14.130;2022-12-18T17:28:26;31.38;;;13.73;;
42666;SDS011;28280;49.646;14.130;2022-12-18T17:33:57;31.48;;;14.43;;
42666;SDS011;28280;49.646;14.130;2022-12-18T17:39:28;30.15;;;13.88;;
42666;SDS011;28280;49.646;14.130;2022-12-18T17:45:01;32.58;;;14.25;;
42666;SDS011;28280;49.646;14.130;2022-12-18T17:50:32;34.20;;;14.75;;
42666;SDS011;28280;49.646;14.130;2022-12-18T17:56:04;36.22;;;15.35;;
42666;SDS011;28280;49.646;14.130;2022-12-18T18:01:37;39.33;;;16.37;;
42666;SDS011;28280;49.646;14.130;2022-12-18T18:07:14;37.20;;;14.85;;
42666;SDS011;28280;49.646;14.130;2022-12-18T18:12:46;33.17;;;15.75;;
42666;SDS011;28280;49.646;14.130;2022-12-18T18:18:36;35.97;;;15.52;;
42666;SDS011;28280;49.646;14.130;2022-12-18T18:24:08;36.42;;;15.77;;
42666;SDS011;28280;49.646;14.130;2022-12-18T18:29:41;39.63;;;17.10;;
42666;SDS011;28280;49.646;14.130;2022-12-18T18:35:12;36.28;;;16.33;;
42666;SDS011;28280;49.646;14.130;2022-12-18T18:41:04;36.60;;;16.27;;
42666;SDS011;28280;49.646;14.130;2022-12-18T18:46:36;39.15;;;17.05;;
42666;SDS011;28280;49.646;14.130;2022-12-18T18:52:07;40.22;;;18.00;;
42666;SDS011;28280;49.646;14.130;2022-12-18T18:57:38;39.63;;;16.65;;
42666;SDS011;28280;49.646;14.130;2022-12-18T19:03:09;40.47;;;18.02;;
42666;SDS011;28280;49.646;14.130;2022-12-18T19:08:42;40.10;;;18.33;;
42666;SDS011;28280;49.646;14.130;2022-12-18T19:19:49;42.60;;;17.50;;
42666;SDS011;28280;49.646;14.130;2022-12-18T19:25:22;42.60;;;17.55;;
42666;SDS011;28280;49.646;14.130;2022-12-18T19:31:10;38.63;;;18.25;;
42666;SDS011;28280;49.646;14.130;2022-12-18T19:36:43;42.05;;;18.02;;
42666;SDS011;28280;49.646;14.130;2022-12-18T19:42:16;43.35;;;18.42;;
42666;SDS011;28280;49.646;14.130;2022-12-18T19:47:56;42.35;;;17.23;;
42666;SDS011;28280;49.646;14.130;2022-12-18T19:53:34;44.83;;;18.30;;
42666;SDS011;28280;49.646;14.130;2022-12-18T19:59:05;40.08;;;17.88;;
42666;SDS011;28280;49.646;14.130;2022-12-18T20:04:36;36.58;;;16.67;;
42666;SDS011;28280;49.646;14.130;2022-12-18T20:10:09;43.55;;;16.27;;
42666;SDS011;28280;49.646;14.130;2022-12-18T20:15:45;37.85;;;16.50;;
42666;SDS011;28280;49.646;14.130;2022-12-18T20:21:16;33.80;;;13.70;;
42666;SDS011;28280;49.646;14.130;2022-12-18T20:26:48;36.05;;;15.40;;
42666;SDS011;28280;49.646;14.130;2022-12-18T20:32:19;32.83;;;14.98;;
42666;SDS011;28280;49.646;14.130;2022-12-18T20:37:51;31.88;;;14.40;;
42666;SDS011;28280;49.646;14.130;2022-12-18T20:43:22;31.13;;;14.23;;
42666;SDS011;28280;49.646;14.130;2022-12-18T20:48:54;28.55;;;12.43;;
42666;SDS011;28280;49.646;14.130;2022-12-18T20:54:25;30.92;;;13.50;;
42666;SDS011;28280;49.646;14.130;2022-12-18T20:59:57;28.10;;;13.07;;
42666;SDS011;28280;49.646;14.130;2022-12-18T21:05:28;25.45;;;12.57;;
42666;SDS011;28280;49.646;14.130;2022-12-18T21:11:22;25.42;;;12.40;;
42666;SDS011;28280;49.646;14.130;2022-12-18T21:17:15;24.60;;;12.52;;
42666;SDS011;28280;49.646;14.130;2022-12-18T21:22:46;28.17;;;11.75;;
42666;SDS011;28280;49.646;14.130;2022-12-18T21:28:18;32.45;;;13.15;;
42666;SDS011;28280;49.646;14.130;2022-12-18T21:33:50;32.97;;;13.63;;
42666;SDS011;28280;49.646;14.130;2022-12-18T21:39:29;30.55;;;12.55;;
42666;SDS011;28280;49.646;14.130;2022-12-18T21:45:01;33.92;;;13.57;;
42666;SDS011;28280;49.646;14.130;2022-12-18T21:50:32;29.40;;;13.88;;
42666;SDS011;28280;49.646;14.130;2022-12-18T21:56:03;27.35;;;12.82;;
42666;SDS011;28280;49.646;14.130;2022-12-18T22:01:35;31.90;;;12.48;;
42666;SDS011;28280;49.646;14.130;2022-12-18T22:07:07;26.55;;;11.80;;
42666;SDS011;28280;49.646;14.130;2022-12-18T22:12:41;26.92;;;12.43;;
42666;SDS011;28280;49.646;14.130;2022-12-18T22:18:14;29.35;;;11.80;;
42666;SDS011;28280;49.646;14.130;2022-12-18T22:23:50;30.67;;;12.10;;
42666;SDS011;28280;49.646;14.130;2022-12-18T22:29:25;26.80;;;11.82;;
42666;SDS011;28280;49.646;14.130;2022-12-18T22:35:15;27.13;;;11.15;;
42666;SDS011;28280;49.646;14.130;2022-12-18T22:40:46;23.77;;;10.57;;
42666;SDS011;28280;49.646;14.130;2022-12-18T22:46:17;27.48;;;11.80;;
42666;SDS011;28280;49.646;14.130;2022-12-18T22:51:49;26.15;;;11.50;;
42666;SDS011;28280;49.646;14.130;2022-12-18T22:57:21;27.13;;;11.52;;
42666;SDS011;28280;49.646;14.130;2022-12-18T23:02:53;26.05;;;11.20;;
42666;SDS011;28280;49.646;14.130;2022-12-18T23:08:30;27.33;;;10.35;;
42666;SDS011;28280;49.646;14.130;2022-12-18T23:14:02;26.35;;;11.07;;
42666;SDS011;28280;49.646;14.130;2022-12-18T23:19:33;24.48;;;10.00;;
42666;SDS011;28280;49.646;14.130;2022-12-18T23:25:04;24.42;;;9.93;;
42666;SDS011;28280;49.646;14.130;2022-12-18T23:30:35;23.63;;;10.30;;
42666;SDS011;28280;49.646;14.130;2022-12-18T23:36:06;26.17;;;11.85;;
42666;SDS011;28280;49.646;14.130;2022-12-18T23:41:38;28.40;;;11.35;;
42666;SDS011;28280;49.646;14.130;2022-12-18T23:47:09;25.65;;;10.57;;
42666;SDS011;28280;49.646;14.130;2022-12-18T23:52:40;26.05;;;11.35;;
42666;SDS011;28280;49.646;14.130;2022-12-18T23:58:18;26.33;;;10.88;;
